Time;durP1;ratioP1;P1;durP2;ratioP2;P2;SDS_P1;SDS_P2;PMS_P1;PMS_P2;Temp;Humidity;BMP_temperature;BMP_pressure;BME280_temperature;BME280_humidity;BME280_pressure;Samples;Min_cycle;Max_cycle;Signal;HPM_P1;HPM_P2
2022/08/06 00:02:23;;;;;;;2.78;0.63;;;;;;;15.58;81.60;102575.31;5091245;28;20051;-35
2022/08/06 00:04:56;;;;;;;2.67;0.50;;;;;;;15.58;81.48;102574.50;5090002;28;20044;-38
2022/08/06 00:07:24;;;;;;;2.47;0.47;;;;;;;15.57;81.68;102575.63;5091394;28;20048;-35
2022/08/06 00:09:58;;;;;;;3.25;0.70;;;;;;;15.56;81.74;102577.59;5091059;28;20098;-42
2022/08/06 00:12:31;;;;;;;2.10;0.40;;;;;;;15.56;81.38;102577.59;5090807;28;20051;-39
2022/08/06 00:15:02;;;;;;;3.20;0.40;;;;;;;15.57;81.21;102572.81;5091576;28;20048;-33
2022/08/06 00:17:41;;;;;;;3.35;0.50;;;;;;;15.55;81.35;102577.84;5093377;28;20105;-35
2022/08/06 00:20:10;;;;;;;2.33;0.40;;;;;;;15.54;81.17;102587.41;5092122;28;20044;-33
2022/08/06 00:22:58;;;;;;;1.63;0.52;;;;;;;15.50;80.90;102593.63;5093162;28;20101;-33
2022/08/06 00:25:26;;;;;;;1.40;0.28;;;;;;;15.51;81.13;102594.47;5091290;28;20066;-32
2022/08/06 00:27:56;;;;;;;1.67;0.47;;;;;;;15.52;81.61;102599.81;5092836;28;20044;-32
2022/08/06 00:30:23;;;;;;;1.73;0.45;;;;;;;15.54;81.92;102601.47;5092653;28;20097;-32
2022/08/06 00:32:52;;;;;;;3.45;0.52;;;;;;;15.55;82.20;102595.56;5092184;28;20051;-32
2022/08/06 00:35:21;;;;;;;5.53;0.65;;;;;;;15.56;82.59;102596.44;5092938;28;20054;-33
2022/08/06 00:37:55;;;;;;;3.33;0.55;;;;;;;15.57;83.12;102600.94;5092826;28;20555;-35
2022/08/06 00:40:28;;;;;;;2.20;0.40;;;;;;;15.59;83.47;102599.50;5091653;28;20502;-39
2022/08/06 00:42:59;;;;;;;3.33;0.43;;;;;;;15.63;83.57;102605.38;5092574;28;20044;-32
2022/08/06 00:45:36;;;;;;;3.35;0.57;;;;;;;15.63;83.92;102605.38;5092559;28;20087;-32
2022/08/06 00:48:08;;;;;;;1.65;0.40;;;;;;;15.65;83.98;102606.78;5091926;28;20135;-32
2022/08/06 00:50:56;;;;;;;2.80;0.50;;;;;;;15.64;84.24;102609.88;5092187;28;20036;-33
2022/08/06 00:53:27;;;;;;;2.28;0.50;;;;;;;15.64;83.92;102619.16;5092054;28;20069;-39
2022/08/06 00:56:02;;;;;;;2.45;0.45;;;;;;;15.66;84.28;102618.88;5091938;28;20079;-35
2022/08/06 00:58:39;;;;;;;3.72;0.40;;;;;;;15.68;84.37;102616.63;5092370;28;20086;-38
2022/08/06 01:01:08;;;;;;;2.25;0.38;;;;;;;15.68;84.04;102611.84;5091264;28;20519;-32
2022/08/06 01:03:44;;;;;;;2.70;0.43;;;;;;;15.68;84.02;102625.06;5092467;28;20136;-31
2022/08/06 01:06:19;;;;;;;2.08;0.47;;;;;;;15.71;83.96;102630.13;5092122;28;20542;-41
2022/08/06 01:09:07;;;;;;;1.85;0.43;;;;;;;15.73;84.08;102633.47;5071295;28;20429;-35
2022/08/06 01:11:37;;;;;;;4.15;0.60;;;;;;;15.76;84.24;102628.13;5089730;28;20040;-36
2022/08/06 01:14:07;;;;;;;1.80;0.50;;;;;;;15.77;83.90;102628.97;5092100;28;20079;-33
2022/08/06 01:16:41;;;;;;;3.67;0.47;;;;;;;15.76;83.57;102621.66;5091357;28;20390;-37
2022/08/06 01:19:47;;;;;;;2.13;0.30;;;;;;;15.77;83.61;102632.63;5092108;28;20485;-32
2022/08/06 01:22:52;;;;;;;2.38;0.47;;;;;;;15.75;83.75;102628.41;5090472;28;20054;-32
2022/08/06 01:25:43;;;;;;;2.42;0.60;;;;;;;15.77;83.43;102631.78;5091997;28;20052;-33
2022/08/06 01:28:21;;;;;;;3.15;0.50;;;;;;;15.75;83.13;102639.66;5090915;28;20043;-33
2022/08/06 01:31:02;;;;;;;2.10;0.60;;;;;;;15.76;82.91;102638.53;5091173;28;20503;-35
2022/08/06 01:33:34;;;;;;;1.52;0.47;;;;;;;15.77;82.96;102638.25;5091763;28;20040;-37
2022/08/06 01:36:10;;;;;;;2.38;0.50;;;;;;;15.77;82.69;102634.59;5091067;28;20044;-32
2022/08/06 01:38:43;;;;;;;3.20;0.52;;;;;;;15.75;82.51;102632.06;5091637;28;20529;-35
2022/08/06 01:41:40;;;;;;;1.95;0.38;;;;;;;15.76;82.54;102642.19;5091835;28;20040;-35
2022/08/06 01:44:34;;;;;;;2.20;0.93;;;;;;;15.74;82.87;102647.28;5084768;28;20047;-32
2022/08/06 01:47:06;;;;;;;2.83;0.60;;;;;;;15.73;83.14;102645.59;5091245;28;20044;-33
2022/08/06 01:49:47;;;;;;;2.47;0.57;;;;;;;15.74;83.55;102643.63;5091120;28;20058;-35
2022/08/06 01:52:33;;;;;;;3.17;0.80;;;;;;;15.73;83.56;102641.94;5091579;28;20436;-39
2022/08/06 01:55:06;;;;;;;4.38;0.70;;;;;;;15.71;83.21;102650.66;5091667;28;20052;-37
2022/08/06 01:57:41;;;;;;;2.30;0.65;;;;;;;15.69;82.73;102655.75;5090597;28;20493;-36
2022/08/06 02:00:32;;;;;;;1.52;0.52;;;;;;;15.65;82.36;102649.00;5091820;28;20447;-37
2022/08/06 02:03:04;;;;;;;2.95;0.60;;;;;;;15.62;81.79;102654.34;5091534;28;20067;-36
2022/08/06 02:05:33;;;;;;;3.42;0.77;;;;;;;15.58;81.36;102651.31;5090721;28;20512;-33
2022/08/06 02:08:21;;;;;;;1.92;0.60;;;;;;;15.55;81.16;102649.03;5095615;28;20130;-32
2022/08/06 02:11:09;;;;;;;2.17;0.60;;;;;;;15.50;80.79;102649.91;5088690;28;20047;-35
2022/08/06 02:13:59;;;;;;;2.50;0.60;;;;;;;15.46;80.72;102660.03;5095096;28;20043;-37
2022/08/06 02:16:33;;;;;;;1.95;0.60;;;;;;;15.44;80.83;102655.81;5095693;28;20051;-32
2022/08/06 02:19:04;;;;;;;3.53;0.55;;;;;;;15.39;80.98;102653.88;5094734;28;20044;-42
2022/08/06 02:21:42;;;;;;;2.83;0.70;;;;;;;15.33;80.90;102652.22;5095509;28;20083;-32
2022/08/06 02:24:18;;;;;;;2.63;0.68;;;;;;;15.29;80.49;102662.38;5094952;28;20501;-38
2022/08/06 02:26:47;;;;;;;3.15;0.60;;;;;;;15.26;79.84;102657.31;5094581;28;20048;-43
2022/08/06 02:29:19;;;;;;;2.30;0.70;;;;;;;15.24;79.45;102659.56;5095064;28;20382;-33
2022/08/06 02:31:51;;;;;;;1.52;0.50;;;;;;;15.22;79.25;102660.97;5075174;28;20187;-32
2022/08/06 02:34:20;;;;;;;2.70;0.57;;;;;;;15.21;79.19;102659.28;5089631;28;20048;-32
2022/08/06 02:36:59;;;;;;;1.30;0.40;;;;;;;15.16;79.57;102665.78;5074772;28;20044;-35
2022/08/06 02:39:31;;;;;;;2.17;0.60;;;;;;;15.13;79.79;102670.03;5089151;28;20079;-36
2022/08/06 02:42:22;;;;;;;2.92;0.55;;;;;;;15.08;80.03;102667.22;5074872;28;20409;-35
2022/08/06 02:45:00;;;;;;;2.88;0.52;;;;;;;15.07;80.38;102670.31;5091697;28;20048;-37
2022/08/06 02:47:36;;;;;;;1.70;0.60;;;;;;;15.05;80.43;102669.75;5094164;28;20495;-40
2022/08/06 02:50:28;;;;;;;2.08;0.50;;;;;;;15.03;80.80;102674.81;5094626;28;20047;-37
2022/08/06 02:53:03;;;;;;;1.95;0.40;;;;;;;15.01;80.94;102674.25;5094615;28;20121;-37
2022/08/06 02:55:39;;;;;;;1.40;0.50;;;;;;;14.99;81.38;102673.69;5094415;28;20083;-34
2022/08/06 02:58:18;;;;;;;2.95;0.55;;;;;;;14.98;82.30;102678.50;5094941;28;20040;-36
2022/08/06 03:00:58;;;;;;;3.13;0.70;;;;;;;14.99;82.89;102679.31;5093652;28;20052;-33
2022/08/06 03:03:29;;;;;;;2.28;0.60;;;;;;;15.01;83.38;102674.25;5094610;28;20101;-32
2022/08/06 03:06:05;;;;;;;1.90;0.45;;;;;;;15.00;83.53;102678.19;5093592;28;20126;-33
2022/08/06 03:08:36;;;;;;;1.58;0.40;;;;;;;14.99;83.73;102679.31;5093999;28;20154;-36
2022/08/06 03:11:06;;;;;;;2.28;0.80;;;;;;;14.97;84.21;102682.44;5094348;28;20044;-35
2022/08/06 03:13:35;;;;;;;3.30;0.60;;;;;;;14.98;84.46;102677.66;5094434;28;20056;-33
2022/08/06 03:16:05;;;;;;;3.65;0.80;;;;;;;14.98;84.59;102674.84;5093296;28;20076;-33
2022/08/06 03:18:54;;;;;;;2.85;0.65;;;;;;;14.95;84.94;102675.41;5093616;28;20044;-33
2022/08/06 03:21:44;;;;;;;2.15;0.60;;;;;;;14.92;85.43;102678.78;5091040;28;20048;-33
2022/08/06 03:24:26;;;;;;;3.92;0.60;;;;;;;14.92;85.21;102678.78;5073962;28;20102;-33
2022/08/06 03:26:58;;;;;;;2.35;0.60;;;;;;;14.93;85.22;102681.31;5091621;28;20055;-39
2022/08/06 03:29:28;;;;;;;2.20;0.70;;;;;;;14.92;85.26;102681.59;5093551;28;20058;-33
2022/08/06 03:31:57;;;;;;;1.85;0.60;;;;;;;14.93;85.52;102684.13;5091636;28;20048;-34
2022/08/06 03:34:47;;;;;;;2.50;0.70;;;;;;;14.95;85.66;102684.69;5090947;28;20477;-33
2022/08/06 03:37:20;;;;;;;2.67;0.68;;;;;;;14.98;85.98;102689.75;5090581;28;20563;-35
2022/08/06 03:40:11;;;;;;;2.42;0.70;;;;;;;15.01;86.62;102693.94;5091660;28;20052;-38
2022/08/06 03:42:40;;;;;;;4.55;0.90;;;;;;;15.02;86.38;102684.38;5090963;28;20066;-38
2022/08/06 03:45:11;;;;;;;3.28;0.60;;;;;;;15.02;86.00;102692.81;5092232;28;20048;-34
2022/08/06 03:48:03;;;;;;;2.00;0.52;;;;;;;15.01;85.98;102694.78;5092870;28;20055;-39
2022/08/06 03:50:43;;;;;;;1.75;0.50;;;;;;;15.01;85.69;102696.75;5093021;28;20082;-43
2022/08/06 03:53:19;;;;;;;2.05;0.63;;;;;;;15.00;85.13;102697.88;5092911;28;20492;-40
2022/08/06 03:55:55;;;;;;;1.58;0.50;;;;;;;14.97;84.65;102690.03;5093151;28;20507;-33
2022/08/06 03:58:25;;;;;;;2.75;0.60;;;;;;;14.94;83.80;102699.88;5092279;28;20086;-33
2022/08/06 04:01:00;;;;;;;2.65;0.70;;;;;;;14.92;83.24;102690.88;5093370;28;20044;-32
2022/08/06 04:03:32;;;;;;;2.22;0.52;;;;;;;14.90;82.90;102701.56;5091972;28;20044;-34
2022/08/06 04:06:10;;;;;;;1.83;0.70;;;;;;;14.90;82.73;102693.13;5093423;28;20298;-34
2022/08/06 04:08:47;;;;;;;2.90;0.73;;;;;;;14.90;82.77;102692.28;5089207;28;20051;-34
2022/08/06 04:11:17;;;;;;;1.98;0.50;;;;;;;14.89;82.95;102701.84;5092502;28;20052;-33
2022/08/06 04:14:06;;;;;;;2.05;0.70;;;;;;;14.83;83.30;102699.03;5090591;28;20044;-32
2022/08/06 04:16:37;;;;;;;2.25;0.63;;;;;;;14.82;83.39;102688.91;5093114;28;20172;-34
2022/08/06 04:19:06;;;;;;;2.15;0.57;;;;;;;14.83;83.59;102692.56;5092025;28;20040;-33
2022/08/06 04:21:41;;;;;;;1.42;0.50;;;;;;;14.83;83.98;102698.19;5092880;28;20058;-37
2022/08/06 04:24:28;;;;;;;2.28;0.60;;;;;;;14.82;84.59;102700.16;5090215;28;20040;-42
2022/08/06 04:27:01;;;;;;;4.03;0.60;;;;;;;14.82;85.03;102705.78;5092884;28;20127;-36
2022/08/06 04:29:37;;;;;;;3.88;0.60;;;;;;;14.83;85.20;102706.63;5089361;28;20068;-36
2022/08/06 04:32:26;;;;;;;1.52;0.40;;;;;;;14.81;85.65;102712.53;5092065;28;20040;-42
2022/08/06 04:35:02;;;;;;;1.70;0.60;;;;;;;14.82;85.52;102707.75;5092625;28;20040;-39
2022/08/06 04:37:52;;;;;;;1.45;0.60;;;;;;;14.81;85.88;102715.34;5092497;28;20036;-39
2022/08/06 04:40:21;;;;;;;1.83;0.50;;;;;;;14.83;86.01;102713.09;5092162;28;20048;-34
2022/08/06 04:43:09;;;;;;;4.22;1.27;;;;;;;14.85;85.95;102721.22;5092631;28;20063;-33
2022/08/06 04:45:39;;;;;;;1.40;0.50;;;;;;;14.88;85.70;102725.44;5091723;28;20515;-33
2022/08/06 04:48:28;;;;;;;1.60;0.60;;;;;;;14.90;85.61;102731.63;5092232;28;20066;-34
2022/08/06 04:51:07;;;;;;;3.00;0.60;;;;;;;14.94;85.62;102735.56;5092593;28;20048;-34
2022/08/06 04:53:45;;;;;;;3.47;0.77;;;;;;;14.99;85.77;102732.72;5091292;28;20044;-31
2022/08/06 04:56:24;;;;;;;2.10;0.75;;;;;;;15.00;85.86;102737.22;5092356;28;20560;-32
2022/08/06 04:59:03;;;;;;;1.52;0.55;;;;;;;15.00;85.74;102740.03;5092290;28;20036;-34
2022/08/06 05:01:34;;;;;;;2.38;0.60;;;;;;;15.01;85.79;102748.19;5091726;28;20044;-31
2022/08/06 05:04:22;;;;;;;1.73;0.60;;;;;;;15.00;85.86;102749.31;5092084;28;20047;-33
2022/08/06 05:06:57;;;;;;;1.63;0.70;;;;;;;15.01;85.65;102751.00;5091403;28;20050;-34
2022/08/06 05:09:28;;;;;;;2.80;0.75;;;;;;;15.02;85.24;102747.06;5091990;28;20485;-32
2022/08/06 05:12:21;;;;;;;2.85;1.15;;;;;;;15.02;85.16;102747.06;5089068;28;20062;-31
2022/08/06 05:14:54;;;;;;;2.63;0.70;;;;;;;15.03;85.13;102748.75;5091020;28;20036;-32
2022/08/06 05:17:25;;;;;;;1.90;0.60;;;;;;;15.05;85.09;102752.13;5091897;28;20065;-33
2022/08/06 05:20:15;;;;;;;1.98;0.50;;;;;;;15.11;85.08;102755.78;5091954;28;20171;-34
2022/08/06 05:23:00;;;;;;;1.90;0.88;;;;;;;15.14;85.05;102764.50;5091286;28;20097;-33
2022/08/06 05:25:36;;;;;;;2.13;0.57;;;;;;;15.18;84.81;102764.78;5091748;28;20076;-32
2022/08/06 05:28:05;;;;;;;1.63;0.60;;;;;;;15.21;84.47;102775.44;5091238;28;20043;-33
2022/08/06 05:30:46;;;;;;;2.88;0.70;;;;;;;15.26;84.35;102771.78;5092002;28;20066;-33
2022/08/06 05:33:23;;;;;;;1.60;0.70;;;;;;;15.31;84.72;102767.00;5091979;28;20071;-32
2022/08/06 05:35:56;;;;;;;2.60;0.82;;;;;;;15.35;85.05;102770.94;5090591;28;20040;-34
2022/08/06 05:38:30;;;;;;;3.13;0.82;;;;;;;15.42;85.19;102768.66;5091645;28;20459;-32
2022/08/06 05:41:05;;;;;;;2.70;0.85;;;;;;;15.48;84.86;102767.50;5091591;28;20075;-33
2022/08/06 05:43:34;;;;;;;1.57;0.70;;;;;;;15.55;84.42;102772.00;5091146;28;20043;-32
2022/08/06 05:46:23;;;;;;;1.92;0.70;;;;;;;15.58;83.94;102777.94;5091477;28;20297;-33
2022/08/06 05:49:01;;;;;;;1.50;0.68;;;;;;;15.64;83.26;102778.75;5070775;28;20458;-31
2022/08/06 05:51:44;;;;;;;2.20;1.00;;;;;;;15.69;82.99;102776.75;5088486;28;20112;-31
2022/08/06 05:54:20;;;;;;;2.03;0.88;;;;;;;15.75;82.89;102772.81;5091668;28;20079;-33
2022/08/06 05:56:52;;;;;;;2.63;0.80;;;;;;;15.82;83.23;102775.28;5090609;28;20058;-38
2022/08/06 05:59:25;;;;;;;2.70;0.73;;;;;;;15.92;83.30;102777.25;5091405;28;20048;-37
2022/08/06 06:02:15;;;;;;;2.42;0.63;;;;;;;16.05;83.16;102782.22;5091358;28;20506;-41
2022/08/06 06:04:47;;;;;;;2.17;0.90;;;;;;;16.17;82.39;102775.13;5090928;28;20444;-42
2022/08/06 06:07:36;;;;;;;1.63;0.80;;;;;;;16.32;82.13;102781.81;5090409;28;20047;-37
2022/08/06 06:10:25;;;;;;;2.10;0.60;;;;;;;16.44;82.27;102774.66;5090701;28;20036;-40
2022/08/06 06:12:56;;;;;;;1.55;0.55;;;;;;;16.62;82.48;102783.56;5091448;28;20040;-37
2022/08/06 06:15:23;;;;;;;1.10;0.50;;;;;;;16.77;82.86;102783.50;5091607;28;20044;-33
2022/08/06 06:18:23;;;;;;;2.47;0.80;;;;;;;16.97;83.55;102788.13;5088100;28;20048;-34
2022/08/06 06:21:10;;;;;;;2.25;0.60;;;;;;;17.12;83.84;102785.16;5091131;28;20420;-35
2022/08/06 06:24:06;;;;;;;3.63;0.70;;;;;;;17.31;83.85;102790.88;5080636;28;20052;-36
2022/08/06 06:26:40;;;;;;;2.55;0.70;;;;;;;17.43;83.38;102794.13;5087236;28;20070;-33
2022/08/06 06:29:16;;;;;;;1.83;0.55;;;;;;;17.59;83.12;102787.19;5090272;28;20146;-33
2022/08/06 06:32:10;;;;;;;3.13;0.73;;;;;;;17.75;82.61;102793.53;5089175;28;20051;-39
2022/08/06 06:35:03;;;;;;;1.70;0.60;;;;;;;18.00;82.07;102796.03;5090271;28;20040;-38
2022/08/06 06:37:40;;;;;;;2.42;0.60;;;;;;;18.36;81.39;102804.03;5089796;28;20516;-34
2022/08/06 06:40:26;;;;;;;2.70;0.55;;;;;;;18.87;79.34;102804.94;5089352;28;20066;-39
2022/08/06 06:43:01;;;;;;;2.38;0.68;;;;;;;19.34;76.59;102814.31;5089757;28;20043;-39
2022/08/06 06:45:42;;;;;;;2.08;0.60;;;;;;;19.78;75.46;102810.13;5089706;28;20142;-34
2022/08/06 06:48:35;;;;;;;3.00;1.05;;;;;;;20.56;73.86;102812.66;5089829;28;20059;-33
2022/08/06 06:51:09;;;;;;;1.92;0.70;;;;;;;21.42;70.58;102820.16;5089770;28;20052;-33
2022/08/06 06:53:57;;;;;;;2.80;0.73;;;;;;;22.36;64.90;102814.03;5092460;28;20066;-36
2022/08/06 06:56:42;;;;;;;2.60;0.70;;;;;;;22.77;61.34;102821.25;5093384;28;20052;-35
2022/08/06 06:59:16;;;;;;;1.63;0.70;;;;;;;22.73;60.18;102818.25;5091100;28;20448;-43
2022/08/06 07:01:48;;;;;;;2.85;0.60;;;;;;;22.92;59.75;102824.47;5093226;28;20051;-36
2022/08/06 07:04:24;;;;;;;1.60;0.65;;;;;;;23.48;57.99;102828.22;5093086;28;20052;-39
2022/08/06 07:06:56;;;;;;;1.88;0.80;;;;;;;24.09;56.10;102822.28;5091396;28;20501;-39
2022/08/06 07:09:37;;;;;;;1.92;0.70;;;;;;;24.78;52.62;102834.06;5092603;28;20040;-36
2022/08/06 07:12:23;;;;;;;1.90;0.68;;;;;;;25.42;50.39;102836.50;5093351;28;20059;-38
2022/08/06 07:14:55;;;;;;;1.73;0.82;;;;;;;25.99;49.32;102836.50;5091013;28;20477;-34
2022/08/06 07:17:32;;;;;;;2.63;0.70;;;;;;;26.53;46.80;102838.31;5093456;28;20105;-44
2022/08/06 07:20:20;;;;;;;1.75;0.60;;;;;;;27.09;45.45;102839.25;5089960;28;20133;-41
2022/08/06 07:22:56;;;;;;;1.80;0.60;;;;;;;27.65;43.75;102839.19;5093002;28;20079;-38
2022/08/06 07:25:48;;;;;;;2.47;0.80;;;;;;;28.15;42.37;102841.34;5093339;28;20058;-36
2022/08/06 07:28:25;;;;;;;2.05;0.65;;;;;;;28.57;41.05;102849.34;5091926;28;20090;-35
2022/08/06 07:30:59;;;;;;;1.75;0.60;;;;;;;28.94;39.81;102844.03;5092606;28;20051;-33
2022/08/06 07:33:37;;;;;;;2.08;0.60;;;;;;;28.88;38.28;102846.38;5092794;28;20051;-44
2022/08/06 07:36:28;;;;;;;1.77;0.70;;;;;;;28.59;38.93;102858.41;5083451;28;20044;-46
2022/08/06 07:39:00;;;;;;;1.35;0.60;;;;;;;28.27;39.30;102860.50;5092227;28;20079;-35
2022/08/06 07:41:30;;;;;;;1.83;0.60;;;;;;;27.84;39.74;102856.50;5091591;28;20048;-37
2022/08/06 07:44:21;;;;;;;2.65;0.75;;;;;;;27.76;39.88;102851.81;5092633;28;20052;-37
2022/08/06 07:47:00;;;;;;;1.70;0.60;;;;;;;28.12;39.63;102859.31;5092488;28;20070;-35
2022/08/06 07:49:53;;;;;;;1.40;0.57;;;;;;;28.61;38.36;102855.97;5091666;28;20032;-38
2022/08/06 07:52:28;;;;;;;2.78;0.75;;;;;;;29.02;37.66;102860.22;5092635;28;20052;-38
2022/08/06 07:55:00;;;;;;;1.75;0.75;;;;;;;29.39;37.28;102860.56;5092365;28;20047;-37
2022/08/06 07:57:28;;;;;;;1.65;0.70;;;;;;;29.78;36.50;102859.31;5091562;28;20040;-35
2022/08/06 08:00:16;;;;;;;3.60;1.05;;;;;;;30.29;36.13;102864.75;5092225;28;20417;-35
2022/08/06 08:06:17;;;;;;;1.67;0.80;;;;;;;30.75;35.10;102870.44;5091431;28;20054;-37
2022/08/06 08:08:30;;;;;;;2.13;0.80;;;;;;;31.48;33.15;102871.78;5091079;28;20136;-34
2022/08/06 08:11:00;;;;;;;1.83;0.82;;;;;;;31.79;33.04;102867.59;5091324;28;20052;-38
2022/08/06 08:13:32;;;;;;;3.38;0.90;;;;;;;31.90;32.05;102879.25;5091993;28;20048;-36
2022/08/06 08:16:15;;;;;;;1.75;0.70;;;;;;;32.07;32.14;102884.38;5091663;28;20055;-36
2022/08/06 08:18:47;;;;;;;1.75;0.90;;;;;;;32.41;31.88;102883.03;5089517;28;20048;-37
2022/08/06 08:21:20;;;;;;;2.25;0.80;;;;;;;32.69;30.85;102876.63;5090020;28;20047;-38
2022/08/06 08:23:51;;;;;;;3.13;0.90;;;;;;;32.94;30.58;102876.78;5091397;28;20052;-38
2022/08/06 08:26:22;;;;;;;2.60;1.00;;;;;;;33.16;30.58;102878.56;5088021;28;20496;-43
2022/08/06 08:28:52;;;;;;;1.90;0.90;;;;;;;33.32;29.91;102871.59;5091486;28;20602;-39
2022/08/06 08:31:20;;;;;;;2.17;1.10;;;;;;;33.52;30.17;102873.72;5090345;28;20218;-39
2022/08/06 08:33:53;;;;;;;2.95;0.90;;;;;;;33.71;28.97;102880.38;5091775;28;20089;-38
2022/08/06 08:36:23;;;;;;;2.70;1.20;;;;;;;33.81;28.42;102871.72;5091289;28;20048;-37
2022/08/06 08:38:57;;;;;;;1.60;0.80;;;;;;;34.01;27.94;102874.22;5090626;28;20044;-40
2022/08/06 08:41:32;;;;;;;2.58;1.00;;;;;;;34.24;27.83;102868.84;5091006;28;20072;-38
2022/08/06 08:44:23;;;;;;;1.75;0.80;;;;;;;34.36;27.38;102868.47;5091503;28;20048;-40
2022/08/06 08:46:56;;;;;;;1.90;0.77;;;;;;;34.50;27.69;102870.50;5090596;28;20052;-39
2022/08/06 08:49:33;;;;;;;2.40;0.85;;;;;;;34.59;26.63;102876.69;5091511;28;20048;-41
2022/08/06 08:52:09;;;;;;;1.40;0.60;;;;;;;34.62;27.30;102877.94;5090055;28;20106;-42
2022/08/06 08:54:42;;;;;;;1.70;0.70;;;;;;;34.64;27.29;102869.66;5091717;28;20052;-41
2022/08/06 08:57:10;;;;;;;1.65;0.57;;;;;;;34.72;27.15;102875.03;5091788;28;20404;-38
2022/08/06 09:00:00;;;;;;;3.13;0.70;;;;;;;34.65;26.93;102877.94;5091383;28;20048;-41
2022/08/06 09:02:29;;;;;;;1.83;0.63;;;;;;;34.67;27.02;102868.81;5091975;28;20052;-38
2022/08/06 09:04:58;;;;;;;2.20;0.63;;;;;;;34.79;26.78;102877.91;5092269;28;20044;-42
2022/08/06 09:07:28;;;;;;;1.92;0.40;;;;;;;34.87;26.75;102878.72;5090799;28;20050;-39
2022/08/06 09:10:05;;;;;;;1.58;0.55;;;;;;;34.96;27.24;102875.41;5091934;28;20044;-41
2022/08/06 09:12:33;;;;;;;1.10;0.50;;;;;;;35.07;27.12;102873.28;5091621;28;20067;-36
2022/08/06 09:15:13;;;;;;;1.25;0.40;;;;;;;34.94;26.67;102884.53;5091068;28;20063;-40
2022/08/06 09:17:45;;;;;;;1.75;0.50;;;;;;;34.88;26.49;102883.28;5091703;28;20055;-40
2022/08/06 09:20:35;;;;;;;3.17;0.50;;;;;;;34.95;26.83;102886.19;5089666;28;20428;-43
2022/08/06 09:23:04;;;;;;;1.13;0.30;;;;;;;35.05;26.40;102891.09;5089819;28;20080;-40
2022/08/06 09:25:42;;;;;;;1.45;0.47;;;;;;;35.17;25.67;102886.94;5091847;28;20449;-41
2022/08/06 09:28:34;;;;;;;0.80;0.30;;;;;;;35.38;25.48;102888.91;5090900;28;20048;-38
2022/08/06 09:31:05;;;;;;;1.50;0.50;;;;;;;35.43;25.29;102885.56;5091927;28;20052;-39
2022/08/06 09:33:58;;;;;;;1.00;0.30;;;;;;;35.48;24.89;102885.13;5091273;28;20047;-41
2022/08/06 09:36:47;;;;;;;1.17;0.40;;;;;;;35.56;25.07;102892.56;5070226;28;20445;-46
2022/08/06 09:39:30;;;;;;;1.25;0.40;;;;;;;35.59;24.42;102897.50;5090107;28;20138;-40
2022/08/06 09:42:37;;;;;;;1.67;0.40;;;;;;;35.56;24.63;102902.09;5090905;28;20051;-40
2022/08/06 09:45:06;;;;;;;2.17;0.40;;;;;;;35.62;25.18;102896.66;5088977;28;20088;-40
2022/08/06 09:47:43;;;;;;;1.17;0.30;;;;;;;35.68;24.65;102900.78;5091194;28;20052;-40
2022/08/06 09:50:37;;;;;;;1.40;0.30;;;;;;;35.71;24.30;102908.63;5090066;28;20082;-37
2022/08/06 09:53:10;;;;;;;1.98;0.50;;;;;;;35.66;24.95;102906.19;5091286;28;20524;-36
2022/08/06 09:55:45;;;;;;;1.00;0.30;;;;;;;35.67;24.87;102913.63;5090818;28;20113;-35
2022/08/06 09:58:13;;;;;;;1.00;0.30;;;;;;;35.56;25.10;102902.09;5091116;28;20056;-41
2022/08/06 10:00:41;;;;;;;0.73;0.20;;;;;;;35.54;25.28;102904.59;5091285;28;20078;-39
2022/08/06 10:03:13;;;;;;;1.25;0.32;;;;;;;35.48;25.46;102905.44;5090674;28;20048;-43
2022/08/06 10:06:06;;;;;;;0.80;0.30;;;;;;;35.55;25.44;102909.16;5090787;28;20452;-39
2022/08/06 10:08:38;;;;;;;1.10;0.38;;;;;;;35.58;25.45;102913.25;5091275;28;20040;-41
2022/08/06 10:11:07;;;;;;;1.27;0.20;;;;;;;35.57;25.59;102911.63;5090217;28;20412;-38
2022/08/06 10:13:37;;;;;;;0.85;0.30;;;;;;;35.49;25.12;102916.66;5091243;28;20397;-43
2022/08/06 10:16:18;;;;;;;1.42;0.40;;;;;;;35.52;24.95;102912.91;5090679;28;20052;-37
2022/08/06 10:18:49;;;;;;;1.45;0.22;;;;;;;35.58;25.00;102911.19;5091269;28;20067;-37
2022/08/06 10:21:27;;;;;;;0.77;0.20;;;;;;;35.41;25.61;102911.28;5091072;28;20051;-39
2022/08/06 10:24:10;;;;;;;1.05;0.30;;;;;;;35.20;25.89;102909.28;5090390;28;20048;-36
2022/08/06 10:26:42;;;;;;;0.45;0.20;;;;;;;35.17;25.60;102908.03;5091069;28;20435;-38
2022/08/06 10:29:12;;;;;;;0.82;0.20;;;;;;;35.16;25.65;102909.31;5094885;28;20394;-36
2022/08/06 10:31:41;;;;;;;1.30;0.30;;;;;;;35.07;26.00;102908.09;5094131;28;20044;-42
2022/08/06 10:34:11;;;;;;;0.52;0.20;;;;;;;34.99;26.00;102910.19;5094750;28;20044;-39
2022/08/06 10:36:44;;;;;;;1.30;0.30;;;;;;;34.79;26.41;102904.03;5094821;28;20055;-41
2022/08/06 10:39:16;;;;;;;1.10;0.30;;;;;;;34.66;26.32;102901.97;5094180;28;20048;-38
2022/08/06 10:42:07;;;;;;;1.73;0.40;;;;;;;34.32;26.71;102910.31;5094821;28;20097;-39
2022/08/06 10:44:50;;;;;;;1.08;0.30;;;;;;;33.99;27.25;102899.88;5094006;28;20055;-39
2022/08/06 10:47:21;;;;;;;1.30;0.30;;;;;;;33.80;27.19;102898.22;5094586;28;20086;-37
2022/08/06 10:50:10;;;;;;;0.88;0.28;;;;;;;33.80;26.80;102890.34;5094392;28;20044;-38
2022/08/06 10:52:58;;;;;;;0.68;0.20;;;;;;;33.91;27.68;102895.34;5084832;28;20148;-36
2022/08/06 10:55:29;;;;;;;1.02;0.32;;;;;;;34.10;27.19;102897.84;5094494;28;20101;-40
2022/08/06 10:58:14;;;;;;;0.65;0.20;;;;;;;34.21;27.10;102896.59;5094626;28;20125;-40
2022/08/06 11:00:45;;;;;;;1.33;0.30;;;;;;;34.23;26.62;102894.09;5094307;28;20036;-35
2022/08/06 11:03:41;;;;;;;1.05;0.22;;;;;;;34.25;26.02;102899.50;5094512;28;20378;-41
2022/08/06 11:06:23;;;;;;;1.38;0.30;;;;;;;34.24;25.43;102892.03;5093664;28;20040;-39
2022/08/06 11:09:11;;;;;;;1.02;0.30;;;;;;;34.19;26.03;102893.28;5094478;28;20097;-37
2022/08/06 11:11:49;;;;;;;0.80;0.20;;;;;;;34.18;25.15;102896.59;5093797;28;20413;-38
2022/08/06 11:14:38;;;;;;;1.40;0.30;;;;;;;34.23;26.19;102894.09;5092877;28;20048;-37
2022/08/06 11:17:07;;;;;;;1.38;0.20;;;;;;;34.41;26.02;102890.41;5094002;28;20486;-35
2022/08/06 11:19:40;;;;;;;1.08;0.20;;;;;;;34.51;25.83;102899.09;5093569;28;20135;-40
2022/08/06 11:22:34;;;;;;;0.65;0.20;;;;;;;34.48;24.88;102894.13;5089498;28;20079;-36
2022/08/06 11:25:04;;;;;;;0.70;0.22;;;;;;;34.21;26.16;102887.91;5094043;28;20143;-36
2022/08/06 11:27:53;;;;;;;0.50;0.20;;;;;;;34.20;26.40;102891.19;5092974;28;20036;-39
2022/08/06 11:30:40;;;;;;;1.30;0.30;;;;;;;33.92;25.87;102892.03;5094074;28;20080;-39
2022/08/06 11:33:15;;;;;;;0.95;0.15;;;;;;;33.59;26.69;102892.34;5093597;28;20505;-38
2022/08/06 11:35:45;;;;;;;1.05;0.25;;;;;;;33.30;26.78;102888.53;5093444;28;20408;-40
2022/08/06 11:38:52;;;;;;;0.80;0.20;;;;;;;33.20;27.00;102893.00;5093131;28;20132;-36
2022/08/06 11:41:27;;;;;;;0.75;0.20;;;;;;;33.10;27.64;102894.63;5092772;28;20072;-42
2022/08/06 11:44:17;;;;;;;0.93;0.20;;;;;;;33.26;27.20;102893.50;5092609;28;20044;-39
2022/08/06 11:47:18;;;;;;;0.63;0.10;;;;;;;33.43;26.58;102884.03;5093177;28;20417;-39
2022/08/06 11:50:04;;;;;;;1.02;0.30;;;;;;;33.49;27.03;102888.19;5086427;28;20382;-39
2022/08/06 11:52:41;;;;;;;0.68;0.20;;;;;;;33.57;26.29;102891.94;5093364;28;20488;-39
2022/08/06 11:55:11;;;;;;;0.60;0.20;;;;;;;33.57;26.39;102887.00;5092758;28;20144;-34
2022/08/06 11:57:51;;;;;;;0.50;0.20;;;;;;;33.50;26.62;102892.75;5093076;28;20489;-37
2022/08/06 12:00:22;;;;;;;0.63;0.20;;;;;;;33.47;26.61;102891.50;5093533;28;20063;-40
2022/08/06 12:02:58;;;;;;;0.80;0.20;;;;;;;33.19;26.88;102900.88;5092125;28;20114;-36
2022/08/06 12:05:47;;;;;;;0.73;0.20;;;;;;;33.14;27.24;102891.75;5093395;28;20050;-39
2022/08/06 12:08:28;;;;;;;0.73;0.20;;;;;;;33.13;27.38;102901.69;5092494;28;20504;-37
2022/08/06 12:11:35;;;;;;;0.88;0.25;;;;;;;33.05;27.03;102892.13;5092997;28;20507;-36
2022/08/06 12:14:06;;;;;;;0.95;0.20;;;;;;;32.90;27.50;102895.34;5092687;28;20044;-36
2022/08/06 12:16:55;;;;;;;0.45;0.20;;;;;;;32.91;28.18;102892.06;5072136;28;20566;-34
2022/08/06 12:19:31;;;;;;;0.70;0.20;;;;;;;32.89;28.12;102882.97;5089652;28;20048;-36